sensor_id;sensor_type;location;lat;lon;timestamp;P1;durP1;ratioP1;P2;durP2;ratioP2
12966;SDS011;6548;49.996;8.238;2023-12-20T00:02:17;4.78;;;2.97;;
12966;SDS011;6548;49.996;8.238;2023-12-20T00:04:43;4.85;;;3.40;;
12966;SDS011;6548;49.996;8.238;2023-12-20T00:07:08;5.68;;;3.13;;
12966;SDS011;6548;49.996;8.238;2023-12-20T00:09:37;5.93;;;3.65;;
12966;SDS011;6548;49.996;8.238;2023-12-20T00:12:02;5.82;;;3.70;;
12966;SDS011;6548;49.996;8.238;2023-12-20T00:14:28;4.32;;;3.05;;
12966;SDS011;6548;49.996;8.238;2023-12-20T00:16:54;5.32;;;2.97;;
12966;SDS011;6548;49.996;8.238;2023-12-20T00:19:19;4.50;;;3.00;;
12966;SDS011;6548;49.996;8.238;2023-12-20T00:21:45;3.88;;;2.97;;
12966;SDS011;6548;49.996;8.238;2023-12-20T00:24:10;5.43;;;3.10;;
12966;SDS011;6548;49.996;8.238;2023-12-20T00:26:36;4.68;;;3.67;;
12966;SDS011;6548;49.996;8.238;2023-12-20T00:29:02;3.55;;;2.67;;
12966;SDS011;6548;49.996;8.238;2023-12-20T00:31:27;4.28;;;2.90;;
12966;SDS011;6548;49.996;8.238;2023-12-20T00:33:53;3.35;;;2.75;;
12966;SDS011;6548;49.996;8.238;2023-12-20T00:36:19;4.43;;;2.92;;
12966;SDS011;6548;49.996;8.238;2023-12-20T00:38:45;4.43;;;2.58;;
12966;SDS011;6548;49.996;8.238;2023-12-20T00:41:10;4.53;;;3.00;;
12966;SDS011;6548;49.996;8.238;2023-12-20T00:43:36;4.13;;;2.85;;
12966;SDS011;6548;49.996;8.238;2023-12-20T00:46:03;3.28;;;2.90;;
12966;SDS011;6548;49.996;8.238;2023-12-20T00:48:29;3.38;;;2.67;;
12966;SDS011;6548;49.996;8.238;2023-12-20T00:50:57;3.75;;;2.40;;
12966;SDS011;6548;49.996;8.238;2023-12-20T00:53:23;4.60;;;2.80;;
12966;SDS011;6548;49.996;8.238;2023-12-20T00:55:48;4.40;;;2.85;;
12966;SDS011;6548;49.996;8.238;2023-12-20T00:58:15;3.88;;;2.67;;
12966;SDS011;6548;49.996;8.238;2023-12-20T01:00:40;4.50;;;2.50;;
12966;SDS011;6548;49.996;8.238;2023-12-20T01:03:07;2.95;;;2.30;;
12966;SDS011;6548;49.996;8.238;2023-12-20T01:05:33;4.15;;;2.30;;
12966;SDS011;6548;49.996;8.238;2023-12-20T01:07:59;4.28;;;2.80;;
12966;SDS011;6548;49.996;8.238;2023-12-20T01:10:24;3.33;;;2.40;;
12966;SDS011;6548;49.996;8.238;2023-12-20T01:12:53;3.28;;;2.67;;
12966;SDS011;6548;49.996;8.238;2023-12-20T01:15:18;3.53;;;2.47;;
12966;SDS011;6548;49.996;8.238;2023-12-20T01:17:44;3.13;;;2.10;;
12966;SDS011;6548;49.996;8.238;2023-12-20T01:20:10;3.38;;;2.17;;
12966;SDS011;6548;49.996;8.238;2023-12-20T01:22:35;2.72;;;1.90;;
12966;SDS011;6548;49.996;8.238;2023-12-20T01:25:01;3.00;;;2.13;;
12966;SDS011;6548;49.996;8.238;2023-12-20T01:27:27;3.28;;;2.05;;
12966;SDS011;6548;49.996;8.238;2023-12-20T01:29:53;2.33;;;1.90;;
12966;SDS011;6548;49.996;8.238;2023-12-20T01:32:19;3.00;;;2.17;;
12966;SDS011;6548;49.996;8.238;2023-12-20T01:34:44;4.15;;;1.88;;
12966;SDS011;6548;49.996;8.238;2023-12-20T01:37:10;2.22;;;1.88;;
12966;SDS011;6548;49.996;8.238;2023-12-20T01:39:36;2.72;;;2.10;;
12966;SDS011;6548;49.996;8.238;2023-12-20T01:42:01;2.42;;;2.22;;
12966;SDS011;6548;49.996;8.238;2023-12-20T01:44:27;3.08;;;2.10;;
12966;SDS011;6548;49.996;8.238;2023-12-20T01:46:52;3.15;;;2.08;;
12966;SDS011;6548;49.996;8.238;2023-12-20T01:49:19;3.35;;;2.00;;
12966;SDS011;6548;49.996;8.238;2023-12-20T01:51:44;3.92;;;2.05;;
12966;SDS011;6548;49.996;8.238;2023-12-20T01:54:11;2.50;;;2.08;;
12966;SDS011;6548;49.996;8.238;2023-12-20T01:56:37;2.80;;;1.77;;
12966;SDS011;6548;49.996;8.238;2023-12-20T01:59:04;3.30;;;1.70;;
12966;SDS011;6548;49.996;8.238;2023-12-20T02:01:30;2.97;;;2.20;;
12966;SDS011;6548;49.996;8.238;2023-12-20T02:03:56;3.20;;;1.85;;
12966;SDS011;6548;49.996;8.238;2023-12-20T02:06:22;4.40;;;2.03;;
12966;SDS011;6548;49.996;8.238;2023-12-20T02:08:49;2.22;;;1.52;;
12966;SDS011;6548;49.996;8.238;2023-12-20T02:11:15;1.83;;;1.50;;
12966;SDS011;6548;49.996;8.238;2023-12-20T02:13:41;2.00;;;1.67;;
12966;SDS011;6548;49.996;8.238;2023-12-20T02:16:06;2.03;;;1.48;;
12966;SDS011;6548;49.996;8.238;2023-12-20T02:18:32;1.23;;;1.13;;
12966;SDS011;6548;49.996;8.238;2023-12-20T02:20:58;4.35;;;1.75;;
12966;SDS011;6548;49.996;8.238;2023-12-20T02:23:24;1.73;;;1.40;;
12966;SDS011;6548;49.996;8.238;2023-12-20T02:25:49;4.80;;;1.30;;
12966;SDS011;6548;49.996;8.238;2023-12-20T02:28:15;1.73;;;1.20;;
12966;SDS011;6548;49.996;8.238;2023-12-20T02:30:41;1.48;;;0.85;;
12966;SDS011;6548;49.996;8.238;2023-12-20T02:33:08;1.58;;;1.17;;
12966;SDS011;6548;49.996;8.238;2023-12-20T02:35:37;1.30;;;1.00;;
12966;SDS011;6548;49.996;8.238;2023-12-20T02:38:02;1.20;;;1.10;;
12966;SDS011;6548;49.996;8.238;2023-12-20T02:40:28;1.52;;;1.10;;
12966;SDS011;6548;49.996;8.238;2023-12-20T02:42:53;2.75;;;1.50;;
12966;SDS011;6548;49.996;8.238;2023-12-20T02:45:19;1.15;;;0.90;;
12966;SDS011;6548;49.996;8.238;2023-12-20T02:47:44;2.65;;;1.20;;
12966;SDS011;6548;49.996;8.238;2023-12-20T02:50:10;2.78;;;1.25;;
12966;SDS011;6548;49.996;8.238;2023-12-20T02:52:35;2.38;;;1.15;;
12966;SDS011;6548;49.996;8.238;2023-12-20T02:55:01;1.95;;;1.10;;
12966;SDS011;6548;49.996;8.238;2023-12-20T02:57:26;1.90;;;1.10;;
12966;SDS011;6548;49.996;8.238;2023-12-20T02:59:52;1.13;;;1.00;;
12966;SDS011;6548;49.996;8.238;2023-12-20T03:02:17;1.10;;;1.00;;
12966;SDS011;6548;49.996;8.238;2023-12-20T03:04:43;1.20;;;1.00;;
12966;SDS011;6548;49.996;8.238;2023-12-20T03:07:08;2.00;;;0.80;;
12966;SDS011;6548;49.996;8.238;2023-12-20T03:09:34;1.48;;;1.15;;
12966;SDS011;6548;49.996;8.238;2023-12-20T03:11:59;0.95;;;0.80;;
12966;SDS011;6548;49.996;8.238;2023-12-20T03:14:25;1.20;;;0.70;;
12966;SDS011;6548;49.996;8.238;2023-12-20T03:16:50;1.33;;;0.88;;
12966;SDS011;6548;49.996;8.238;2023-12-20T03:19:16;0.90;;;0.77;;
12966;SDS011;6548;49.996;8.238;2023-12-20T03:21:42;1.20;;;1.00;;
12966;SDS011;6548;49.996;8.238;2023-12-20T03:24:08;1.95;;;1.45;;
12966;SDS011;6548;49.996;8.238;2023-12-20T03:26:34;1.67;;;1.00;;
12966;SDS011;6548;49.996;8.238;2023-12-20T03:28:59;1.90;;;1.30;;
12966;SDS011;6548;49.996;8.238;2023-12-20T03:31:25;1.52;;;1.00;;
12966;SDS011;6548;49.996;8.238;2023-12-20T03:33:50;1.25;;;1.08;;
12966;SDS011;6548;49.996;8.238;2023-12-20T03:36:17;0.93;;;0.80;;
12966;SDS011;6548;49.996;8.238;2023-12-20T03:38:42;1.40;;;1.02;;
12966;SDS011;6548;49.996;8.238;2023-12-20T03:41:08;1.55;;;1.05;;
12966;SDS011;6548;49.996;8.238;2023-12-20T03:43:33;1.77;;;1.42;;
12966;SDS011;6548;49.996;8.238;2023-12-20T03:45:59;2.80;;;0.98;;
12966;SDS011;6548;49.996;8.238;2023-12-20T03:48:25;1.10;;;0.80;;
12966;SDS011;6548;49.996;8.238;2023-12-20T03:50:50;1.85;;;1.13;;
12966;SDS011;6548;49.996;8.238;2023-12-20T03:53:16;2.00;;;1.17;;
12966;SDS011;6548;49.996;8.238;2023-12-20T03:55:41;1.42;;;0.90;;
12966;SDS011;6548;49.996;8.238;2023-12-20T03:58:07;1.20;;;0.80;;
12966;SDS011;6548;49.996;8.238;2023-12-20T04:00:32;1.15;;;0.85;;
12966;SDS011;6548;49.996;8.238;2023-12-20T04:02:58;1.40;;;1.10;;
12966;SDS011;6548;49.996;8.238;2023-12-20T04:05:23;1.83;;;1.38;;
12966;SDS011;6548;49.996;8.238;2023-12-20T04:07:49;1.52;;;1.17;;
12966;SDS011;6548;49.996;8.238;2023-12-20T04:10:15;1.30;;;1.20;;
12966;SDS011;6548;49.996;8.238;2023-12-20T04:12:41;1.50;;;1.10;;
12966;SDS011;6548;49.996;8.238;2023-12-20T04:15:06;1.52;;;1.20;;
12966;SDS011;6548;49.996;8.238;2023-12-20T04:17:34;1.50;;;1.10;;
12966;SDS011;6548;49.996;8.238;2023-12-20T04:20:00;1.15;;;0.95;;
12966;SDS011;6548;49.996;8.238;2023-12-20T04:22:26;1.30;;;1.00;;
12966;SDS011;6548;49.996;8.238;2023-12-20T04:24:52;1.33;;;1.00;;
12966;SDS011;6548;49.996;8.238;2023-12-20T04:27:17;0.88;;;0.85;;
12966;SDS011;6548;49.996;8.238;2023-12-20T04:29:43;1.83;;;1.15;;
12966;SDS011;6548;49.996;8.238;2023-12-20T04:32:08;1.40;;;1.15;;
12966;SDS011;6548;49.996;8.238;2023-12-20T04:34:34;1.70;;;1.23;;
12966;SDS011;6548;49.996;8.238;2023-12-20T04:36:59;1.33;;;1.20;;
12966;SDS011;6548;49.996;8.238;2023-12-20T04:39:26;1.83;;;1.25;;
12966;SDS011;6548;49.996;8.238;2023-12-20T04:41:52;2.90;;;1.50;;
12966;SDS011;6548;49.996;8.238;2023-12-20T04:44:17;1.33;;;0.95;;
12966;SDS011;6548;49.996;8.238;2023-12-20T04:46:43;4.45;;;1.40;;
12966;SDS011;6548;49.996;8.238;2023-12-20T04:49:09;2.88;;;1.50;;
12966;SDS011;6548;49.996;8.238;2023-12-20T04:51:35;5.82;;;1.70;;
12966;SDS011;6548;49.996;8.238;2023-12-20T04:54:01;3.05;;;1.20;;
12966;SDS011;6548;49.996;8.238;2023-12-20T04:56:27;2.42;;;1.30;;
12966;SDS011;6548;49.996;8.238;2023-12-20T04:58:52;4.80;;;1.33;;
12966;SDS011;6548;49.996;8.238;2023-12-20T05:01:18;3.58;;;1.30;;
12966;SDS011;6548;49.996;8.238;2023-12-20T05:03:44;1.67;;;1.30;;
12966;SDS011;6548;49.996;8.238;2023-12-20T05:06:09;2.10;;;1.30;;
12966;SDS011;6548;49.996;8.238;2023-12-20T05:08:35;4.40;;;1.35;;
12966;SDS011;6548;49.996;8.238;2023-12-20T05:11:01;2.85;;;1.23;;
12966;SDS011;6548;49.996;8.238;2023-12-20T05:13:26;2.47;;;1.27;;
12966;SDS011;6548;49.996;8.238;2023-12-20T05:15:52;2.60;;;1.38;;
12966;SDS011;6548;49.996;8.238;2023-12-20T05:18:17;5.93;;;1.30;;
12966;SDS011;6548;49.996;8.238;2023-12-20T05:20:43;4.20;;;1.30;;
12966;SDS011;6548;49.996;8.238;2023-12-20T05:23:08;5.28;;;1.42;;
12966;SDS011;6548;49.996;8.238;2023-12-20T05:25:34;1.85;;;1.60;;
12966;SDS011;6548;49.996;8.238;2023-12-20T05:28:00;4.25;;;0.93;;
12966;SDS011;6548;49.996;8.238;2023-12-20T05:30:25;2.42;;;1.20;;
12966;SDS011;6548;49.996;8.238;2023-12-20T05:32:51;2.28;;;1.20;;
12966;SDS011;6548;49.996;8.238;2023-12-20T05:35:17;2.28;;;1.20;;
12966;SDS011;6548;49.996;8.238;2023-12-20T05:37:42;4.32;;;1.13;;
12966;SDS011;6548;49.996;8.238;2023-12-20T05:40:08;6.57;;;2.05;;
12966;SDS011;6548;49.996;8.238;2023-12-20T05:42:37;9.32;;;2.92;;
12966;SDS011;6548;49.996;8.238;2023-12-20T05:45:03;5.25;;;1.27;;
12966;SDS011;6548;49.996;8.238;2023-12-20T05:47:29;5.55;;;1.33;;
12966;SDS011;6548;49.996;8.238;2023-12-20T05:49:54;3.35;;;1.80;;
12966;SDS011;6548;49.996;8.238;2023-12-20T05:52:20;7.38;;;2.72;;
12966;SDS011;6548;49.996;8.238;2023-12-20T05:54:45;7.25;;;1.95;;
12966;SDS011;6548;49.996;8.238;2023-12-20T05:57:11;5.07;;;1.55;;
12966;SDS011;6548;49.996;8.238;2023-12-20T05:59:36;4.80;;;1.50;;
12966;SDS011;6548;49.996;8.238;2023-12-20T06:02:03;3.38;;;2.33;;
12966;SDS011;6548;49.996;8.238;2023-12-20T06:04:29;4.55;;;1.33;;
12966;SDS011;6548;49.996;8.238;2023-12-20T06:06:55;5.00;;;2.75;;
12966;SDS011;6548;49.996;8.238;2023-12-20T06:09:20;7.30;;;1.95;;
12966;SDS011;6548;49.996;8.238;2023-12-20T06:11:46;2.97;;;1.90;;
12966;SDS011;6548;49.996;8.238;2023-12-20T06:14:11;4.30;;;1.48;;
12966;SDS011;6548;49.996;8.238;2023-12-20T06:16:37;3.80;;;1.40;;
12966;SDS011;6548;49.996;8.238;2023-12-20T06:19:02;8.23;;;1.55;;
12966;SDS011;6548;49.996;8.238;2023-12-20T06:21:28;5.13;;;1.67;;
12966;SDS011;6548;49.996;8.238;2023-12-20T06:23:53;2.53;;;1.45;;
12966;SDS011;6548;49.996;8.238;2023-12-20T06:26:19;4.13;;;1.40;;
12966;SDS011;6548;49.996;8.238;2023-12-20T06:28:45;5.18;;;1.70;;
12966;SDS011;6548;49.996;8.238;2023-12-20T06:31:11;3.67;;;1.35;;
12966;SDS011;6548;49.996;8.238;2023-12-20T06:33:36;4.65;;;1.85;;
12966;SDS011;6548;49.996;8.238;2023-12-20T06:36:02;2.67;;;1.45;;
12966;SDS011;6548;49.996;8.238;2023-12-20T06:38:28;3.80;;;1.58;;
12966;SDS011;6548;49.996;8.238;2023-12-20T06:40:53;5.60;;;2.00;;
12966;SDS011;6548;49.996;8.238;2023-12-20T06:43:19;2.63;;;1.58;;
12966;SDS011;6548;49.996;8.238;2023-12-20T06:45:44;2.45;;;1.48;;
12966;SDS011;6548;49.996;8.238;2023-12-20T06:48:10;8.25;;;1.70;;
12966;SDS011;6548;49.996;8.238;2023-12-20T06:50:38;6.63;;;1.65;;
12966;SDS011;6548;49.996;8.238;2023-12-20T06:53:05;5.97;;;1.75;;
12966;SDS011;6548;49.996;8.238;2023-12-20T06:55:32;7.05;;;1.55;;
12966;SDS011;6548;49.996;8.238;2023-12-20T06:57:58;8.95;;;2.08;;
12966;SDS011;6548;49.996;8.238;2023-12-20T07:00:23;3.53;;;1.48;;
12966;SDS011;6548;49.996;8.238;2023-12-20T07:02:49;2.63;;;1.48;;
12966;SDS011;6548;49.996;8.238;2023-12-20T07:05:18;4.57;;;1.65;;
12966;SDS011;6548;49.996;8.238;2023-12-20T07:07:45;2.53;;;1.13;;
12966;SDS011;6548;49.996;8.238;2023-12-20T07:10:11;10.80;;;1.45;;
12966;SDS011;6548;49.996;8.238;2023-12-20T07:12:37;3.40;;;2.10;;
12966;SDS011;6548;49.996;8.238;2023-12-20T07:15:03;2.60;;;1.45;;
12966;SDS011;6548;49.996;8.238;2023-12-20T07:17:30;4.05;;;1.33;;
12966;SDS011;6548;49.996;8.238;2023-12-20T07:19:58;6.70;;;2.22;;
12966;SDS011;6548;49.996;8.238;2023-12-20T07:22:23;2.72;;;1.17;;
12966;SDS011;6548;49.996;8.238;2023-12-20T07:24:49;6.60;;;1.83;;
12966;SDS011;6548;49.996;8.238;2023-12-20T07:27:17;3.38;;;0.93;;
12966;SDS011;6548;49.996;8.238;2023-12-20T07:29:42;2.78;;;1.70;;
12966;SDS011;6548;49.996;8.238;2023-12-20T07:32:08;2.78;;;1.20;;
12966;SDS011;6548;49.996;8.238;2023-12-20T07:34:33;3.67;;;1.30;;
12966;SDS011;6548;49.996;8.238;2023-12-20T07:36:59;5.57;;;2.17;;
12966;SDS011;6548;49.996;8.238;2023-12-20T07:39:24;2.00;;;1.33;;
12966;SDS011;6548;49.996;8.238;2023-12-20T07:41:50;2.65;;;1.58;;
12966;SDS011;6548;49.996;8.238;2023-12-20T07:44:15;5.95;;;1.75;;
12966;SDS011;6548;49.996;8.238;2023-12-20T07:46:41;3.28;;;1.10;;
12966;SDS011;6548;49.996;8.238;2023-12-20T07:49:06;6.72;;;1.70;;
12966;SDS011;6548;49.996;8.238;2023-12-20T07:51:33;7.22;;;1.60;;
12966;SDS011;6548;49.996;8.238;2023-12-20T07:53:59;7.82;;;2.33;;
12966;SDS011;6548;49.996;8.238;2023-12-20T07:56:24;8.88;;;1.77;;
12966;SDS011;6548;49.996;8.238;2023-12-20T07:58:50;6.38;;;1.40;;
12966;SDS011;6548;49.996;8.238;2023-12-20T08:01:15;4.95;;;1.90;;
12966;SDS011;6548;49.996;8.238;2023-12-20T08:03:43;2.88;;;1.92;;
12966;SDS011;6548;49.996;8.238;2023-12-20T08:06:08;3.78;;;1.30;;
12966;SDS011;6548;49.996;8.238;2023-12-20T08:08:34;8.00;;;1.40;;
12966;SDS011;6548;49.996;8.238;2023-12-20T08:10:59;4.78;;;1.23;;
12966;SDS011;6548;49.996;8.238;2023-12-20T08:13:26;5.18;;;1.42;;
12966;SDS011;6548;49.996;8.238;2023-12-20T08:15:55;12.60;;;2.28;;
12966;SDS011;6548;49.996;8.238;2023-12-20T08:18:21;7.97;;;1.50;;
12966;SDS011;6548;49.996;8.238;2023-12-20T08:20:46;2.45;;;1.27;;
12966;SDS011;6548;49.996;8.238;2023-12-20T08:23:13;5.43;;;1.25;;
12966;SDS011;6548;49.996;8.238;2023-12-20T08:25:38;3.75;;;1.38;;
12966;SDS011;6548;49.996;8.238;2023-12-20T08:28:04;11.13;;;1.60;;
12966;SDS011;6548;49.996;8.238;2023-12-20T08:30:30;5.35;;;1.30;;
12966;SDS011;6548;49.996;8.238;2023-12-20T08:32:56;7.10;;;1.67;;
12966;SDS011;6548;49.996;8.238;2023-12-20T08:35:21;7.28;;;1.48;;
12966;SDS011;6548;49.996;8.238;2023-12-20T08:37:47;5.65;;;1.30;;
12966;SDS011;6548;49.996;8.238;2023-12-20T08:40:13;6.85;;;1.42;;
12966;SDS011;6548;49.996;8.238;2023-12-20T08:42:38;4.30;;;1.30;;
12966;SDS011;6548;49.996;8.238;2023-12-20T08:45:04;5.65;;;1.58;;
12966;SDS011;6548;49.996;8.238;2023-12-20T08:47:30;6.65;;;1.95;;
12966;SDS011;6548;49.996;8.238;2023-12-20T08:49:55;6.35;;;1.92;;
12966;SDS011;6548;49.996;8.238;2023-12-20T08:52:23;8.07;;;2.22;;
12966;SDS011;6548;49.996;8.238;2023-12-20T08:54:49;4.85;;;2.00;;
12966;SDS011;6548;49.996;8.238;2023-12-20T08:57:16;6.82;;;1.38;;
12966;SDS011;6548;49.996;8.238;2023-12-20T08:59:43;4.63;;;1.33;;
12966;SDS011;6548;49.996;8.238;2023-12-20T09:02:09;4.13;;;2.55;;
12966;SDS011;6548;49.996;8.238;2023-12-20T09:04:34;5.47;;;1.52;;
12966;SDS011;6548;49.996;8.238;2023-12-20T09:07:00;4.30;;;1.88;;
12966;SDS011;6548;49.996;8.238;2023-12-20T09:09:26;5.95;;;1.73;;
12966;SDS011;6548;49.996;8.238;2023-12-20T09:11:51;4.05;;;1.42;;
12966;SDS011;6548;49.996;8.238;2023-12-20T09:14:17;5.03;;;2.08;;
12966;SDS011;6548;49.996;8.238;2023-12-20T09:16:42;4.05;;;1.70;;
12966;SDS011;6548;49.996;8.238;2023-12-20T09:19:08;2.78;;;1.30;;
12966;SDS011;6548;49.996;8.238;2023-12-20T09:21:35;2.92;;;1.40;;
12966;SDS011;6548;49.996;8.238;2023-12-20T09:24:00;4.07;;;1.77;;
12966;SDS011;6548;49.996;8.238;2023-12-20T09:26:26;7.28;;;1.63;;
12966;SDS011;6548;49.996;8.238;2023-12-20T09:28:51;6.30;;;1.90;;
12966;SDS011;6548;49.996;8.238;2023-12-20T09:31:17;8.65;;;2.35;;
12966;SDS011;6548;49.996;8.238;2023-12-20T09:33:42;4.43;;;2.28;;
12966;SDS011;6548;49.996;8.238;2023-12-20T09:36:08;6.13;;;2.55;;
12966;SDS011;6548;49.996;8.238;2023-12-20T09:38:33;6.53;;;1.70;;
12966;SDS011;6548;49.996;8.238;2023-12-20T09:40:59;4.68;;;1.52;;
12966;SDS011;6548;49.996;8.238;2023-12-20T09:43:27;4.50;;;1.58;;
12966;SDS011;6548;49.996;8.238;2023-12-20T09:45:54;8.80;;;3.65;;
12966;SDS011;6548;49.996;8.238;2023-12-20T09:48:27;9.55;;;1.98;;
12966;SDS011;6548;49.996;8.238;2023-12-20T09:50:53;6.20;;;2.67;;
12966;SDS011;6548;49.996;8.238;2023-12-20T09:53:19;6.28;;;1.98;;
12966;SDS011;6548;49.996;8.238;2023-12-20T09:55:46;4.53;;;1.63;;
12966;SDS011;6548;49.996;8.238;2023-12-20T09:58:11;5.22;;;2.00;;
12966;SDS011;6548;49.996;8.238;2023-12-20T10:00:37;6.75;;;2.58;;
12966;SDS011;6548;49.996;8.238;2023-12-20T10:03:02;9.20;;;2.92;;
12966;SDS011;6548;49.996;8.238;2023-12-20T10:05:31;4.00;;;2.40;;
12966;SDS011;6548;49.996;8.238;2023-12-20T10:07:57;7.40;;;1.63;;
12966;SDS011;6548;49.996;8.238;2023-12-20T10:10:24;9.13;;;2.67;;
12966;SDS011;6548;49.996;8.238;2023-12-20T10:15:29;5.53;;;1.30;;
12966;SDS011;6548;49.996;8.238;2023-12-20T10:17:55;6.13;;;1.50;;
12966;SDS011;6548;49.996;8.238;2023-12-20T10:20:21;9.88;;;2.47;;
12966;SDS011;6548;49.996;8.238;2023-12-20T10:22:47;10.10;;;2.40;;
12966;SDS011;6548;49.996;8.238;2023-12-20T10:25:14;4.65;;;2.20;;
12966;SDS011;6548;49.996;8.238;2023-12-20T10:27:39;3.38;;;1.25;;
12966;SDS011;6548;49.996;8.238;2023-12-20T10:30:05;9.02;;;1.77;;
12966;SDS011;6548;49.996;8.238;2023-12-20T10:32:31;6.28;;;1.55;;
12966;SDS011;6548;49.996;8.238;2023-12-20T10:34:57;3.05;;;1.73;;
12966;SDS011;6548;49.996;8.238;2023-12-20T10:37:24;4.70;;;2.30;;
12966;SDS011;6548;49.996;8.238;2023-12-20T10:39:50;4.93;;;1.63;;
12966;SDS011;6548;49.996;8.238;2023-12-20T10:42:20;4.55;;;1.58;;
12966;SDS011;6548;49.996;8.238;2023-12-20T10:44:47;5.53;;;1.40;;
12966;SDS011;6548;49.996;8.238;2023-12-20T10:47:14;2.88;;;1.40;;
12966;SDS011;6548;49.996;8.238;2023-12-20T10:49:41;5.47;;;1.67;;
12966;SDS011;6548;49.996;8.238;2023-12-20T10:52:07;4.30;;;1.85;;
12966;SDS011;6548;49.996;8.238;2023-12-20T10:54:34;5.25;;;2.42;;
12966;SDS011;6548;49.996;8.238;2023-12-20T10:56:59;7.22;;;1.77;;
12966;SDS011;6548;49.996;8.238;2023-12-20T10:59:26;5.13;;;1.77;;
12966;SDS011;6548;49.996;8.238;2023-12-20T11:01:54;9.63;;;2.47;;
12966;SDS011;6548;49.996;8.238;2023-12-20T11:04:25;5.07;;;1.67;;
12966;SDS011;6548;49.996;8.238;2023-12-20T11:06:56;5.90;;;1.63;;
12966;SDS011;6548;49.996;8.238;2023-12-20T11:09:34;6.82;;;1.75;;
12966;SDS011;6548;49.996;8.238;2023-12-20T11:12:20;4.55;;;1.95;;
12966;SDS011;6548;49.996;8.238;2023-12-20T11:14:54;4.25;;;1.08;;
12966;SDS011;6548;49.996;8.238;2023-12-20T11:17:27;4.28;;;1.60;;
12966;SDS011;6548;49.996;8.238;2023-12-20T11:22:22;6.90;;;1.70;;
12966;SDS011;6548;49.996;8.238;2023-12-20T11:24:49;5.60;;;2.05;;
12966;SDS011;6548;49.996;8.238;2023-12-20T11:27:16;5.68;;;1.92;;
12966;SDS011;6548;49.996;8.238;2023-12-20T11:29:51;7.90;;;2.22;;
12966;SDS011;6548;49.996;8.238;2023-12-20T11:34:55;2.88;;;1.40;;
12966;SDS011;6548;49.996;8.238;2023-12-20T11:37:28;6.95;;;1.60;;
12966;SDS011;6548;49.996;8.238;2023-12-20T11:39:55;9.02;;;1.58;;
12966;SDS011;6548;49.996;8.238;2023-12-20T11:42:21;7.60;;;2.03;;
12966;SDS011;6548;49.996;8.238;2023-12-20T11:44:47;5.07;;;1.70;;
12966;SDS011;6548;49.996;8.238;2023-12-20T11:47:13;10.10;;;1.95;;
12966;SDS011;6548;49.996;8.238;2023-12-20T11:49:40;6.68;;;2.65;;
12966;SDS011;6548;49.996;8.238;2023-12-20T11:52:06;3.78;;;1.65;;
12966;SDS011;6548;49.996;8.238;2023-12-20T11:54:31;5.57;;;1.33;;
12966;SDS011;6548;49.996;8.238;2023-12-20T11:56:57;6.28;;;1.77;;
12966;SDS011;6548;49.996;8.238;2023-12-20T11:59:23;8.02;;;1.63;;
12966;SDS011;6548;49.996;8.238;2023-12-20T12:01:49;5.82;;;2.47;;
12966;SDS011;6548;49.996;8.238;2023-12-20T12:04:15;5.95;;;1.60;;
12966;SDS011;6548;49.996;8.238;2023-12-20T12:06:42;3.35;;;1.55;;
12966;SDS011;6548;49.996;8.238;2023-12-20T12:09:08;4.18;;;1.05;;
12966;SDS011;6548;49.996;8.238;2023-12-20T12:11:34;5.85;;;2.10;;
12966;SDS011;6548;49.996;8.238;2023-12-20T12:13:59;4.65;;;1.95;;
12966;SDS011;6548;49.996;8.238;2023-12-20T12:16:25;8.27;;;1.60;;
12966;SDS011;6548;49.996;8.238;2023-12-20T12:18:55;8.25;;;3.30;;
12966;SDS011;6548;49.996;8.238;2023-12-20T12:21:21;8.43;;;1.70;;
12966;SDS011;6548;49.996;8.238;2023-12-20T12:23:47;4.97;;;2.17;;
12966;SDS011;6548;49.996;8.238;2023-12-20T12:26:13;5.60;;;1.88;;
12966;SDS011;6548;49.996;8.238;2023-12-20T12:28:42;7.18;;;2.15;;
12966;SDS011;6548;49.996;8.238;2023-12-20T12:31:08;2.97;;;1.60;;
12966;SDS011;6548;49.996;8.238;2023-12-20T12:33:39;3.28;;;1.60;;
12966;SDS011;6548;49.996;8.238;2023-12-20T12:36:06;4.25;;;2.10;;
12966;SDS011;6548;49.996;8.238;2023-12-20T12:38:32;8.85;;;3.50;;
12966;SDS011;6548;49.996;8.238;2023-12-20T12:40:59;8.13;;;2.45;;
12966;SDS011;6548;49.996;8.238;2023-12-20T12:43:25;6.78;;;2.10;;
12966;SDS011;6548;49.996;8.238;2023-12-20T12:45:51;5.38;;;2.08;;
12966;SDS011;6548;49.996;8.238;2023-12-20T12:48:16;5.15;;;1.65;;
12966;SDS011;6548;49.996;8.238;2023-12-20T12:50:42;5.05;;;1.70;;
12966;SDS011;6548;49.996;8.238;2023-12-20T12:53:08;8.15;;;2.90;;
12966;SDS011;6548;49.996;8.238;2023-12-20T12:55:34;4.85;;;1.85;;
12966;SDS011;6548;49.996;8.238;2023-12-20T12:58:00;6.78;;;1.40;;
12966;SDS011;6548;49.996;8.238;2023-12-20T13:00:26;3.70;;;1.52;;
12966;SDS011;6548;49.996;8.238;2023-12-20T13:02:51;4.25;;;2.40;;
12966;SDS011;6548;49.996;8.238;2023-12-20T13:05:17;4.38;;;1.67;;
12966;SDS011;6548;49.996;8.238;2023-12-20T13:07:42;8.15;;;2.25;;
12966;SDS011;6548;49.996;8.238;2023-12-20T13:10:10;3.88;;;1.83;;
12966;SDS011;6548;49.996;8.238;2023-12-20T13:12:36;3.35;;;2.10;;
12966;SDS011;6548;49.996;8.238;2023-12-20T13:15:02;4.93;;;1.50;;
12966;SDS011;6548;49.996;8.238;2023-12-20T13:17:28;6.68;;;1.95;;
12966;SDS011;6548;49.996;8.238;2023-12-20T13:19:54;8.15;;;3.15;;
12966;SDS011;6548;49.996;8.238;2023-12-20T13:22:20;5.90;;;2.20;;
12966;SDS011;6548;49.996;8.238;2023-12-20T13:24:45;2.85;;;1.60;;
12966;SDS011;6548;49.996;8.238;2023-12-20T13:27:11;5.88;;;2.00;;
12966;SDS011;6548;49.996;8.238;2023-12-20T13:29:36;3.33;;;1.20;;
12966;SDS011;6548;49.996;8.238;2023-12-20T13:32:02;7.43;;;1.85;;
12966;SDS011;6548;49.996;8.238;2023-12-20T13:34:28;6.43;;;1.90;;
12966;SDS011;6548;49.996;8.238;2023-12-20T13:36:54;4.07;;;1.27;;
12966;SDS011;6548;49.996;8.238;2023-12-20T13:39:20;5.80;;;1.55;;
12966;SDS011;6548;49.996;8.238;2023-12-20T13:41:46;4.88;;;1.58;;
12966;SDS011;6548;49.996;8.238;2023-12-20T13:44:12;6.10;;;1.67;;
12966;SDS011;6548;49.996;8.238;2023-12-20T13:46:38;4.95;;;1.40;;
12966;SDS011;6548;49.996;8.238;2023-12-20T13:49:03;3.55;;;1.65;;
12966;SDS011;6548;49.996;8.238;2023-12-20T13:51:30;4.25;;;1.45;;
12966;SDS011;6548;49.996;8.238;2023-12-20T13:53:55;6.38;;;1.85;;
12966;SDS011;6548;49.996;8.238;2023-12-20T13:56:21;6.40;;;1.30;;
12966;SDS011;6548;49.996;8.238;2023-12-20T13:58:48;3.05;;;1.35;;
12966;SDS011;6548;49.996;8.238;2023-12-20T14:01:13;7.38;;;1.48;;
12966;SDS011;6548;49.996;8.238;2023-12-20T14:03:39;3.33;;;1.42;;
12966;SDS011;6548;49.996;8.238;2023-12-20T14:06:06;3.90;;;1.30;;
12966;SDS011;6548;49.996;8.238;2023-12-20T14:08:31;4.57;;;1.20;;
12966;SDS011;6548;49.996;8.238;2023-12-20T14:10:57;2.47;;;1.45;;
12966;SDS011;6548;49.996;8.238;2023-12-20T14:13:22;8.90;;;1.40;;
12966;SDS011;6548;49.996;8.238;2023-12-20T14:15:48;3.45;;;1.00;;
12966;SDS011;6548;49.996;8.238;2023-12-20T14:18:14;2.78;;;0.85;;
12966;SDS011;6548;49.996;8.238;2023-12-20T14:20:40;9.82;;;1.70;;
12966;SDS011;6548;49.996;8.238;2023-12-20T14:23:07;2.20;;;0.90;;
12966;SDS011;6548;49.996;8.238;2023-12-20T14:25:34;3.90;;;1.10;;
12966;SDS011;6548;49.996;8.238;2023-12-20T14:28:02;3.00;;;1.20;;
12966;SDS011;6548;49.996;8.238;2023-12-20T14:30:28;3.63;;;0.95;;
12966;SDS011;6548;49.996;8.238;2023-12-20T14:32:53;2.58;;;0.90;;
12966;SDS011;6548;49.996;8.238;2023-12-20T14:35:19;3.03;;;1.10;;
12966;SDS011;6548;49.996;8.238;2023-12-20T14:37:44;2.53;;;0.70;;
12966;SDS011;6548;49.996;8.238;2023-12-20T14:40:10;5.50;;;1.08;;
12966;SDS011;6548;49.996;8.238;2023-12-20T14:42:46;2.30;;;0.93;;
12966;SDS011;6548;49.996;8.238;2023-12-20T14:45:12;3.58;;;1.00;;
12966;SDS011;6548;49.996;8.238;2023-12-20T14:47:41;5.30;;;0.95;;
12966;SDS011;6548;49.996;8.238;2023-12-20T14:50:07;2.95;;;1.20;;
12966;SDS011;6548;49.996;8.238;2023-12-20T14:52:33;3.40;;;0.70;;
12966;SDS011;6548;49.996;8.238;2023-12-20T14:54:59;4.13;;;1.20;;
12966;SDS011;6548;49.996;8.238;2023-12-20T14:57:27;3.38;;;0.80;;
12966;SDS011;6548;49.996;8.238;2023-12-20T14:59:54;2.40;;;1.15;;
12966;SDS011;6548;49.996;8.238;2023-12-20T15:02:20;2.50;;;1.08;;